createdAt,value
2018-08-12T00:01:39.833Z,15.10
2018-08-12T00:04:10.194Z,15.10
2018-08-12T00:06:39.303Z,15.00
2018-08-12T00:09:10.686Z,15.00
2018-08-12T00:11:39.860Z,14.90
2018-08-12T00:14:09.078Z,14.90
2018-08-12T00:16:38.318Z,14.70
2018-08-12T00:19:08.129Z,14.60
2018-08-12T00:21:39.200Z,14.50
2018-08-12T00:24:08.348Z,14.50
2018-08-12T00:29:35.369Z,14.30
2018-08-12T00:32:05.553Z,14.30
2018-08-12T00:34:35.019Z,14.30
2018-08-12T00:37:05.232Z,14.20
2018-08-12T00:39:37.228Z,14.20
2018-08-12T00:42:07.463Z,14.10
2018-08-12T00:44:37.502Z,14.10
2018-08-12T00:47:06.613Z,14.00
2018-08-12T00:49:35.754Z,13.90
2018-08-12T00:52:05.262Z,14.00
2018-08-12T00:54:41.449Z,14.00
2018-08-12T00:57:10.565Z,13.90
2018-08-12T00:59:39.772Z,14.00
2018-08-12T01:02:10.155Z,14.00
2018-08-12T01:04:39.292Z,14.00
2018-08-12T01:07:09.261Z,13.90
2018-08-12T01:09:38.776Z,13.90
2018-08-12T01:12:07.893Z,13.90
2018-08-12T01:14:36.954Z,13.80
2018-08-12T01:17:06.188Z,13.80
2018-08-12T01:19:35.232Z,13.70
2018-08-12T01:22:05.354Z,13.70
2018-08-12T01:24:34.486Z,13.70
2018-08-12T01:27:03.709Z,13.70
2018-08-12T01:29:32.752Z,13.70
2018-08-12T01:32:06.005Z,13.60
2018-08-12T01:34:36.277Z,13.60
2018-08-12T01:37:06.567Z,13.50
2018-08-12T01:39:36.023Z,13.60
2018-08-12T01:42:05.809Z,13.60
2018-08-12T01:44:36.636Z,13.60
2018-08-12T01:47:06.941Z,13.70
2018-08-12T01:49:35.963Z,13.70
2018-08-12T01:52:05.149Z,13.70
2018-08-12T01:54:34.230Z,13.70
2018-08-12T01:57:03.404Z,13.60
2018-08-12T01:59:32.433Z,13.70
2018-08-12T02:02:01.604Z,13.70
2018-08-12T02:04:32.383Z,13.70
2018-08-12T02:07:01.618Z,13.70
2018-08-12T02:09:31.103Z,13.70
2018-08-12T02:12:00.242Z,13.70
2018-08-12T02:14:29.526Z,13.80
2018-08-12T02:16:58.534Z,13.80
2018-08-12T02:19:28.063Z,13.80
2018-08-12T02:21:57.198Z,13.80
2018-08-12T02:24:27.184Z,13.70
2018-08-12T02:26:57.179Z,13.70
2018-08-12T02:29:26.413Z,13.70
2018-08-12T02:31:55.510Z,13.70
2018-08-12T02:34:24.705Z,13.60
2018-08-12T02:36:53.935Z,13.60
2018-08-12T02:39:23.096Z,13.60
2018-08-12T02:41:52.187Z,13.50
2018-08-12T02:44:21.295Z,13.50
2018-08-12T02:46:50.528Z,13.50
2018-08-12T02:49:20.820Z,13.50
2018-08-12T02:51:50.126Z,13.50
2018-08-12T02:54:19.114Z,13.40
2018-08-12T02:56:48.098Z,13.40
2018-08-12T02:59:18.256Z,13.30
2018-08-12T03:01:49.032Z,13.30
2018-08-12T03:04:21.362Z,13.40
2018-08-12T03:06:50.617Z,13.40
2018-08-12T03:09:19.695Z,13.50
2018-08-12T03:11:48.675Z,13.50
2018-08-12T03:14:17.946Z,13.50
2018-08-12T03:16:47.223Z,13.60
2018-08-12T03:19:17.138Z,13.60
2018-08-12T03:21:47.549Z,13.60
2018-08-12T03:24:16.591Z,13.70
2018-08-12T03:26:45.602Z,13.70
2018-08-12T03:29:19.726Z,13.70
2018-08-12T03:31:48.856Z,13.70
2018-08-12T03:34:17.897Z,13.60
2018-08-12T03:36:47.054Z,13.60
2018-08-12T03:39:16.218Z,13.60
2018-08-12T03:41:45.600Z,13.60
2018-08-12T03:44:14.793Z,13.60
2018-08-12T03:46:43.811Z,13.50
2018-08-12T03:49:12.934Z,13.50
2018-08-12T03:51:44.645Z,13.50
2018-08-12T03:54:14.305Z,13.40
2018-08-12T03:56:43.401Z,13.40
2018-08-12T03:59:12.529Z,13.40
2018-08-12T04:04:26.429Z,13.50
2018-08-12T04:06:55.646Z,13.40
2018-08-12T04:09:24.717Z,13.40
2018-08-12T04:11:53.827Z,13.30
2018-08-12T04:14:22.876Z,13.40
2018-08-12T04:16:56.459Z,13.40
2018-08-12T04:19:29.835Z,13.60
2018-08-12T04:22:00.320Z,13.60
2018-08-12T04:24:29.447Z,13.70
2018-08-12T04:26:58.808Z,13.80
2018-08-12T04:29:27.918Z,13.80
2018-08-12T04:31:57.004Z,13.80
2018-08-12T04:34:26.514Z,13.90
2018-08-12T04:36:56.633Z,13.90
2018-08-12T04:39:25.716Z,14.00
2018-08-12T04:42:08.896Z,14.00
2018-08-12T04:44:38.079Z,14.00
2018-08-12T04:47:07.556Z,14.10
2018-08-12T04:49:36.746Z,14.20
2018-08-12T04:52:06.103Z,14.20
2018-08-12T04:54:35.149Z,14.30
2018-08-12T04:57:04.380Z,14.30
2018-08-12T04:59:33.445Z,14.30
2018-08-12T05:02:02.576Z,14.30
2018-08-12T05:04:31.616Z,14.30
2018-08-12T05:07:01.815Z,14.30
2018-08-12T05:09:30.897Z,14.30
2018-08-12T05:12:00.179Z,14.40
2018-08-12T05:14:29.268Z,14.50
2018-08-12T05:16:58.319Z,14.50
2018-08-12T05:19:27.379Z,14.50
2018-08-12T05:21:57.807Z,14.50
2018-08-12T05:24:27.166Z,14.50
2018-08-12T05:26:56.237Z,14.50
2018-08-12T05:29:27.916Z,14.60
2018-08-12T05:31:58.240Z,14.60
2018-08-12T05:34:27.421Z,14.60
2018-08-12T05:36:56.700Z,14.60
2018-08-12T05:39:26.020Z,14.60
2018-08-12T05:41:55.260Z,14.70
2018-08-12T05:44:24.317Z,14.70
2018-08-12T05:46:54.856Z,14.80
2018-08-12T05:49:24.094Z,14.80
2018-08-12T05:51:53.193Z,14.90
2018-08-12T05:54:22.374Z,15.00
2018-08-12T05:56:51.773Z,15.10
2018-08-12T05:59:20.801Z,15.20
2018-08-12T06:01:52.200Z,15.20
2018-08-12T06:04:21.369Z,15.20
2018-08-12T06:06:50.996Z,15.30
2018-08-12T06:09:21.288Z,15.30
2018-08-12T06:11:51.404Z,15.40
2018-08-12T06:14:20.362Z,15.40
2018-08-12T06:16:49.579Z,15.50
2018-08-12T06:19:18.578Z,15.50
2018-08-12T06:21:47.671Z,15.50
2018-08-12T06:24:16.754Z,15.60
2018-08-12T06:26:45.797Z,15.60
2018-08-12T06:29:14.893Z,15.70
2018-08-12T06:31:44.127Z,15.70
2018-08-12T06:34:13.424Z,15.70
2018-08-12T06:36:42.959Z,15.70
2018-08-12T06:39:12.786Z,15.90
2018-08-12T06:41:42.888Z,16.10
2018-08-12T06:44:11.950Z,16.30
2018-08-12T06:46:42.454Z,16.40
2018-08-12T06:49:11.527Z,16.50
2018-08-12T06:51:40.781Z,16.70
2018-08-12T06:54:10.486Z,16.80
2018-08-12T06:56:39.613Z,16.90
2018-08-12T06:59:08.730Z,16.90
2018-08-12T07:01:40.052Z,16.90
2018-08-12T07:04:09.074Z,16.90
2018-08-12T07:06:38.134Z,16.90
2018-08-12T07:09:08.938Z,16.80
2018-08-12T07:11:38.200Z,16.80
2018-08-12T07:14:07.759Z,16.90
2018-08-12T07:16:38.006Z,16.90
2018-08-12T07:19:07.978Z,17.00
2018-08-12T07:21:37.072Z,17.00
2018-08-12T07:24:08.089Z,17.20
2018-08-12T07:26:37.283Z,17.30
2018-08-12T07:29:06.492Z,17.40
2018-08-12T07:31:35.551Z,17.50
2018-08-12T07:34:04.749Z,17.60
2018-08-12T07:36:33.820Z,17.60
2018-08-12T07:39:02.932Z,17.60
2018-08-12T07:41:34.616Z,17.50
2018-08-12T07:44:04.674Z,17.60
2018-08-12T07:46:35.329Z,17.60
2018-08-12T07:49:05.757Z,17.70
2018-08-12T07:51:35.088Z,17.70
2018-08-12T07:54:06.934Z,17.80
2018-08-12T07:56:40.855Z,17.90
2018-08-12T07:59:10.592Z,18.00
2018-08-12T08:01:42.814Z,18.40
2018-08-12T08:04:13.479Z,18.70
2018-08-12T08:06:42.678Z,19.20
2018-08-12T08:09:13.650Z,19.40
2018-08-12T08:11:43.266Z,19.50
2018-08-12T08:14:14.016Z,19.70
2018-08-12T08:16:50.163Z,20.10
2018-08-12T08:19:20.886Z,20.10
2018-08-12T08:21:51.810Z,20.10
2018-08-12T08:24:21.196Z,20.10
2018-08-12T08:26:51.522Z,20.20
2018-08-12T08:29:23.729Z,20.30
2018-08-12T08:31:53.196Z,20.40
2018-08-12T08:34:22.138Z,20.50
2018-08-12T08:36:52.840Z,20.60
2018-08-12T08:39:23.060Z,20.60
2018-08-12T08:41:53.998Z,20.80
2018-08-12T08:44:24.743Z,20.90
2018-08-12T08:46:55.211Z,21.10
2018-08-12T08:49:24.346Z,21.40
2018-08-12T08:51:56.659Z,21.70
2018-08-12T08:54:25.777Z,21.80
2018-08-12T08:56:57.211Z,21.60
2018-08-12T08:59:31.106Z,21.40
2018-08-12T09:02:03.049Z,21.40
2018-08-12T09:04:34.645Z,21.40
2018-08-12T09:07:03.883Z,21.40
2018-08-12T09:09:35.398Z,21.20
2018-08-12T09:12:04.644Z,21.00
2018-08-12T09:14:34.768Z,21.10
2018-08-12T09:17:04.614Z,21.10
2018-08-12T09:19:35.622Z,21.10
2018-08-12T09:22:04.615Z,21.00
2018-08-12T09:24:34.023Z,21.00
2018-08-12T09:27:03.333Z,20.70
2018-08-12T09:29:37.670Z,20.50
2018-08-12T09:32:07.930Z,20.30
2018-08-12T09:34:37.985Z,20.30
2018-08-12T09:37:07.925Z,20.30
2018-08-12T09:39:37.905Z,20.50
2018-08-12T09:42:07.145Z,20.80
2018-08-12T09:44:36.785Z,21.00
2018-08-12T09:47:06.044Z,21.30
2018-08-12T09:49:36.029Z,21.60
2018-08-12T09:52:05.717Z,22.10
2018-08-12T09:54:34.989Z,22.50
2018-08-12T09:57:05.178Z,22.90
2018-08-12T09:59:36.101Z,23.00
2018-08-12T10:02:09.665Z,22.80
2018-08-12T10:04:43.466Z,22.90
2018-08-12T10:07:15.986Z,23.20
2018-08-12T10:09:45.279Z,23.20
2018-08-12T10:12:16.342Z,23.10
2018-08-12T10:14:46.705Z,23.20
2018-08-12T10:17:20.862Z,23.30
2018-08-12T10:19:54.743Z,23.50
2018-08-12T10:22:24.774Z,24.00
2018-08-12T10:24:54.138Z,24.10
2018-08-12T10:27:26.237Z,24.40
2018-08-12T10:29:59.673Z,24.60
2018-08-12T10:32:29.100Z,25.00
2018-08-12T10:34:58.169Z,25.30
2018-08-12T10:37:27.250Z,25.30
2018-08-12T10:39:56.476Z,25.20
2018-08-12T10:42:27.382Z,25.10
2018-08-12T10:44:57.643Z,24.90
2018-08-12T10:47:27.014Z,24.70
2018-08-12T10:49:56.212Z,24.30
2018-08-12T10:52:26.568Z,24.30
2018-08-12T10:54:58.072Z,24.50
2018-08-12T10:57:28.794Z,24.80
2018-08-12T11:00:03.084Z,24.90
2018-08-12T11:02:38.602Z,24.50
2018-08-12T11:05:08.900Z,24.30
2018-08-12T11:07:38.715Z,24.10
2018-08-12T11:10:10.744Z,24.00
2018-08-12T11:12:40.458Z,24.40
2018-08-12T11:15:11.332Z,24.60
2018-08-12T11:17:46.755Z,24.70
2018-08-12T11:20:16.390Z,24.60
2018-08-12T11:22:45.837Z,24.20
2018-08-12T11:25:15.023Z,23.80
2018-08-12T11:27:49.992Z,23.30
2018-08-12T11:30:19.426Z,22.90
2018-08-12T11:32:48.601Z,22.70
2018-08-12T11:35:17.954Z,22.70
2018-08-12T11:37:47.150Z,22.90
2018-08-12T11:40:16.637Z,22.70
2018-08-12T11:42:45.846Z,22.50
2018-08-12T11:45:17.802Z,22.40
2018-08-12T11:47:48.754Z,22.30
2018-08-12T11:50:18.055Z,22.30
2018-08-12T11:52:49.839Z,22.70
2018-08-12T11:55:20.478Z,23.20
2018-08-12T11:57:49.815Z,23.60
2018-08-12T12:00:20.507Z,23.80
2018-08-12T12:02:51.594Z,23.70
2018-08-12T12:05:22.497Z,23.70
2018-08-12T12:07:51.670Z,23.80
2018-08-12T12:10:22.211Z,23.90
2018-08-12T12:12:52.563Z,24.10
2018-08-12T12:15:23.251Z,24.00
2018-08-12T12:17:52.473Z,24.00
2018-08-12T12:20:22.381Z,24.20
2018-08-12T12:22:51.374Z,24.40
2018-08-12T12:25:21.537Z,24.50
2018-08-12T12:27:52.689Z,24.40
2018-08-12T12:30:23.135Z,24.40
2018-08-12T12:32:54.754Z,24.40
2018-08-12T12:35:24.677Z,24.30
2018-08-12T12:37:54.743Z,24.30
2018-08-12T12:40:23.944Z,24.00
2018-08-12T12:42:55.124Z,24.00
2018-08-12T12:45:26.822Z,24.00
2018-08-12T12:47:55.978Z,23.90
2018-08-12T12:50:27.297Z,24.00
2018-08-12T12:52:58.589Z,24.10
2018-08-12T12:55:29.335Z,24.10
2018-08-12T12:58:05.831Z,24.10
2018-08-12T13:00:35.521Z,24.20
2018-08-12T13:03:05.330Z,24.10
2018-08-12T13:05:35.094Z,24.00
2018-08-12T13:08:06.696Z,24.10
2018-08-12T13:10:35.909Z,24.30
2018-08-12T13:13:12.617Z,24.30
2018-08-12T13:15:43.183Z,24.10
2018-08-12T13:18:14.039Z,23.90
2018-08-12T13:20:43.109Z,23.80
2018-08-12T13:23:17.029Z,23.70
2018-08-12T13:25:46.258Z,23.70
2018-08-12T13:28:15.757Z,23.70
2018-08-12T13:30:45.176Z,23.70
2018-08-12T13:33:14.510Z,23.70
2018-08-12T13:35:43.780Z,23.90
2018-08-12T13:38:12.909Z,23.90
2018-08-12T13:40:42.842Z,24.00
2018-08-12T13:43:14.574Z,24.10
2018-08-12T13:45:44.110Z,24.30
2018-08-12T13:48:14.055Z,24.40
2018-08-12T13:50:44.487Z,24.30
2018-08-12T13:53:18.653Z,24.20
2018-08-12T13:55:48.365Z,24.20
2018-08-12T13:58:22.506Z,24.10
2018-08-12T14:00:51.833Z,24.00
2018-08-12T14:03:21.119Z,23.90
2018-08-12T14:05:50.273Z,23.90
2018-08-12T14:08:19.535Z,24.10
2018-08-12T14:10:50.355Z,24.30
2018-08-12T14:13:22.820Z,24.50
2018-08-12T14:15:52.137Z,24.60
2018-08-12T14:18:24.866Z,24.30
2018-08-12T14:20:54.311Z,24.10
2018-08-12T14:23:25.580Z,24.10
2018-08-12T14:25:55.680Z,23.90
2018-08-12T14:28:25.567Z,23.70
2018-08-12T14:30:55.610Z,23.70
2018-08-12T14:33:27.340Z,23.60
2018-08-12T14:35:57.314Z,23.50
2018-08-12T14:38:27.669Z,23.50
2018-08-12T14:40:58.888Z,23.50
2018-08-12T14:43:28.163Z,23.60
2018-08-12T14:45:57.949Z,23.80
2018-08-12T14:48:27.414Z,24.00
2018-08-12T14:50:56.405Z,24.00
2018-08-12T14:53:25.505Z,23.90
2018-08-12T14:55:57.504Z,23.70
2018-08-12T14:58:28.007Z,23.50
2018-08-12T15:01:00.802Z,23.30
2018-08-12T15:03:30.185Z,23.40
2018-08-12T15:05:59.989Z,23.40
2018-08-12T15:08:29.324Z,23.50
2018-08-12T15:10:58.470Z,23.60
2018-08-12T15:13:29.251Z,23.60
2018-08-12T15:15:58.294Z,23.50
2018-08-12T15:18:28.007Z,23.40
2018-08-12T15:20:57.371Z,23.30
2018-08-12T15:23:26.511Z,23.20
2018-08-12T15:25:55.717Z,23.10
2018-08-12T15:28:26.025Z,23.10
2018-08-12T15:30:55.597Z,23.10
2018-08-12T15:33:26.718Z,23.20
2018-08-12T15:35:56.970Z,23.20
2018-08-12T15:38:26.543Z,23.30
2018-08-12T15:40:55.938Z,23.20
2018-08-12T15:43:25.981Z,23.30
2018-08-12T15:45:55.048Z,23.20
2018-08-12T15:48:24.221Z,23.30
2018-08-12T15:50:53.989Z,23.30
2018-08-12T15:53:24.256Z,23.30
2018-08-12T15:55:55.008Z,23.30
2018-08-12T15:58:24.202Z,23.30
2018-08-12T16:00:56.973Z,23.30
2018-08-12T16:03:26.345Z,23.30
2018-08-12T16:05:55.917Z,23.30
2018-08-12T16:08:25.458Z,23.30
2018-08-12T16:10:55.653Z,23.40
2018-08-12T16:13:26.105Z,23.50
2018-08-12T16:15:58.642Z,23.50
2018-08-12T16:18:27.987Z,23.70
2018-08-12T16:20:57.309Z,23.80
2018-08-12T16:23:26.575Z,24.00
2018-08-12T16:25:58.222Z,24.20
2018-08-12T16:28:28.046Z,24.30
2018-08-12T16:30:57.642Z,24.30
2018-08-12T16:33:27.068Z,24.40
2018-08-12T16:35:56.405Z,24.50
2018-08-12T16:38:26.008Z,24.60
2018-08-12T16:40:55.382Z,24.70
2018-08-12T16:43:24.433Z,24.80
2018-08-12T16:45:53.607Z,24.80
2018-08-12T16:48:24.097Z,24.60
2018-08-12T16:50:53.182Z,24.50
2018-08-12T16:53:22.304Z,24.50
2018-08-12T16:55:51.615Z,24.40
2018-08-12T16:58:20.905Z,24.20
2018-08-12T17:00:50.290Z,24.00
2018-08-12T17:03:19.393Z,23.90
2018-08-12T17:05:49.516Z,23.90
2018-08-12T17:08:18.635Z,24.00
2018-08-12T17:10:47.998Z,24.00
2018-08-12T17:13:17.069Z,24.10
2018-08-12T17:15:47.947Z,24.10
2018-08-12T17:18:17.113Z,24.10
2018-08-12T17:20:48.256Z,24.10
2018-08-12T17:23:18.016Z,24.10
2018-08-12T17:25:47.168Z,24.00
2018-08-12T17:28:16.364Z,24.00
2018-08-12T17:30:45.846Z,24.00
2018-08-12T17:33:15.160Z,24.00
2018-08-12T17:35:44.540Z,23.90
2018-08-12T17:38:13.622Z,23.80
2018-08-12T17:40:42.855Z,23.70
2018-08-12T17:43:12.819Z,23.60
2018-08-12T17:45:42.438Z,23.50
2018-08-12T17:48:11.686Z,23.40
2018-08-12T17:50:40.806Z,23.30
2018-08-12T17:53:11.857Z,23.30
2018-08-12T17:55:40.905Z,23.30
2018-08-12T17:58:10.053Z,23.20
2018-08-12T18:00:39.074Z,23.10
2018-08-12T18:03:08.684Z,23.00
2018-08-12T18:05:37.759Z,22.90
2018-08-12T18:08:06.945Z,22.90
2018-08-12T18:10:36.243Z,22.80
2018-08-12T18:13:05.489Z,22.80
2018-08-12T18:15:35.978Z,22.70
2018-08-12T18:18:06.115Z,22.70
2018-08-12T18:20:35.236Z,22.70
2018-08-12T18:23:04.207Z,22.60
2018-08-12T18:25:33.390Z,22.60
2018-08-12T18:28:02.532Z,22.50
2018-08-12T18:30:31.599Z,22.40
2018-08-12T18:33:00.853Z,22.40
2018-08-12T18:35:31.039Z,22.30
2018-08-12T18:38:00.362Z,22.30
2018-08-12T18:40:29.461Z,22.20
2018-08-12T18:42:58.765Z,22.20
2018-08-12T18:45:28.787Z,22.10
2018-08-12T18:47:57.949Z,22.00
2018-08-12T18:50:27.091Z,22.00
2018-08-12T18:52:56.303Z,21.90
2018-08-12T18:55:25.484Z,21.80
2018-08-12T18:57:55.462Z,21.80
2018-08-12T19:00:24.599Z,21.80
2018-08-12T19:02:55.655Z,21.70
2018-08-12T19:05:24.882Z,21.70
2018-08-12T19:07:55.466Z,21.70
2018-08-12T19:10:26.096Z,21.70
2018-08-12T19:12:55.261Z,21.70
2018-08-12T19:15:24.280Z,21.60
2018-08-12T19:17:53.412Z,21.60
2018-08-12T19:20:22.458Z,21.60
2018-08-12T19:22:52.668Z,21.50
2018-08-12T19:25:22.820Z,21.50
2018-08-12T19:27:52.285Z,21.50
2018-08-12T19:30:21.634Z,21.50
2018-08-12T19:32:50.776Z,21.40
2018-08-12T19:35:19.753Z,21.40
2018-08-12T19:37:49.048Z,21.40
2018-08-12T19:40:19.417Z,21.40
2018-08-12T19:42:54.174Z,21.40
2018-08-12T19:45:24.296Z,21.40
2018-08-12T19:47:54.249Z,21.30
2018-08-12T19:50:23.861Z,21.30
2018-08-12T19:52:52.969Z,21.30
2018-08-12T19:55:22.576Z,21.30
2018-08-12T19:57:51.766Z,21.20
2018-08-12T20:00:20.862Z,21.20
2018-08-12T20:02:50.007Z,21.20
2018-08-12T20:05:19.208Z,21.20
2018-08-12T20:07:48.756Z,21.10
2018-08-12T20:10:17.898Z,21.10
2018-08-12T20:12:47.460Z,21.00
2018-08-12T20:15:17.400Z,21.00
2018-08-12T20:17:46.526Z,21.00
2018-08-12T20:20:15.737Z,20.90
2018-08-12T20:22:44.950Z,20.90
2018-08-12T20:25:13.934Z,20.90
2018-08-12T20:27:43.499Z,20.80
2018-08-12T20:30:14.181Z,20.80
2018-08-12T20:32:44.363Z,20.80
2018-08-12T20:35:13.840Z,20.80
2018-08-12T20:37:44.438Z,20.80
2018-08-12T20:40:14.131Z,20.80
2018-08-12T20:42:44.258Z,20.80
2018-08-12T20:45:14.128Z,20.80
2018-08-12T20:47:43.966Z,20.80
2018-08-12T20:50:14.618Z,20.80
2018-08-12T20:52:45.657Z,20.70
2018-08-12T20:55:14.895Z,20.70
2018-08-12T20:57:44.703Z,20.70
2018-08-12T21:00:14.556Z,20.70
2018-08-12T21:02:45.518Z,20.70
2018-08-12T21:05:20.605Z,20.70
2018-08-12T21:07:59.829Z,20.70
2018-08-12T21:10:36.162Z,20.70
2018-08-12T21:13:08.600Z,20.70
2018-08-12T21:15:38.089Z,20.70
2018-08-12T21:18:11.932Z,20.70
2018-08-12T21:20:51.727Z,20.70
2018-08-12T21:23:24.238Z,20.60
2018-08-12T21:26:10.486Z,20.60
2018-08-12T21:28:40.699Z,20.60
2018-08-12T21:31:12.514Z,20.60
2018-08-12T21:33:41.671Z,20.60
2018-08-12T21:36:13.290Z,20.60
2018-08-12T21:38:47.003Z,20.60
2018-08-12T21:41:17.041Z,20.60
2018-08-12T21:43:46.192Z,20.60
2018-08-12T21:46:17.400Z,20.60
2018-08-12T21:48:48.664Z,20.50
2018-08-12T21:51:18.622Z,20.50
2018-08-12T21:53:49.183Z,20.50
2018-08-12T21:56:21.645Z,20.50
2018-08-12T21:58:51.463Z,20.40
2018-08-12T22:01:20.503Z,20.40
2018-08-12T22:03:49.545Z,20.40
2018-08-12T22:06:18.731Z,20.40
2018-08-12T22:09:03.424Z,20.30
2018-08-12T22:11:32.737Z,20.30
2018-08-12T22:14:02.037Z,20.30
2018-08-12T22:16:31.345Z,20.30
2018-08-12T22:19:01.848Z,20.30
2018-08-12T22:21:31.381Z,20.30
2018-08-12T22:24:00.593Z,20.30
2018-08-12T22:26:29.632Z,20.20
2018-08-12T22:28:59.482Z,20.20
2018-08-12T22:31:30.466Z,20.30
2018-08-12T22:33:59.672Z,20.20
2018-08-12T22:36:29.303Z,20.20
2018-08-12T22:38:59.674Z,20.20
2018-08-12T22:41:28.813Z,20.10
2018-08-12T22:43:58.044Z,20.10
2018-08-12T22:46:27.294Z,20.00
2018-08-12T22:48:57.582Z,20.00
2018-08-12T22:51:26.983Z,20.00
2018-08-12T22:53:56.292Z,19.90
2018-08-12T22:56:25.457Z,19.80
2018-08-12T22:58:54.742Z,19.80
2018-08-12T23:01:24.112Z,19.70
2018-08-12T23:03:53.557Z,19.60
2018-08-12T23:06:22.714Z,19.60
2018-08-12T23:08:52.613Z,19.50
2018-08-12T23:11:22.866Z,19.50
2018-08-12T23:13:52.064Z,19.50
2018-08-12T23:16:32.431Z,19.40
2018-08-12T23:19:01.398Z,19.40
2018-08-12T23:21:30.527Z,19.40
2018-08-12T23:24:00.251Z,19.40
2018-08-12T23:26:30.254Z,19.30
2018-08-12T23:29:00.968Z,19.30
2018-08-12T23:31:29.881Z,19.30
2018-08-12T23:33:59.151Z,19.20
2018-08-12T23:36:28.277Z,19.20
2018-08-12T23:38:57.442Z,19.20
2018-08-12T23:41:27.577Z,19.20
2018-08-12T23:43:56.665Z,19.10
2018-08-12T23:46:25.795Z,19.10
2018-08-12T23:48:54.917Z,19.10
2018-08-12T23:51:24.048Z,19.00
2018-08-12T23:53:53.394Z,19.00
2018-08-12T23:56:24.173Z,19.00
2018-08-12T23:58:53.240Z,19.00
